Дата Пункты Температура Давл., мм. Влажн., % Ветер Погодные явления
Воздуха Воды Направл. Скорость
29.06.18 06:00 Одесса 20.0 22.0 749 94 С 1 06 ЧАСОВ
29.06.18 03:00 Одесса 22.0 22.0 750 93 В 3 03 ЧАСА
28.06.18 09:00 Одесса 24.0 22.0 749 68 З 1 21 ЧАС
28.06.18 06:00 Одесса 28.0 22.0 749 59 Ю 4 18 ЧАСОВ
28.06.18 03:00 Одесса 28.0 22.0 751 59 Ю 2 15 ЧАСОВ
28.06.18 12:00 Одесса 25.0 21.0 750 77 С-В 6 12 ЧАСОВ
28.06.18 09:00 Одесса 23.0 21.0 752 83 С 0 09 ЧАСОВ
28.06.18 06:00 Одесса 19.0 22.0 752 95 С 0 06 ЧАСОВ
28.06.18 03:00 Одесса 19.0 22.0 752 92 С 0 03 ЧАСА
27.06.18 09:00 Одесса 22.0 22.0 753 87 С-В 2 21 ЧАС
27.06.18 06:00 Одесса 22.0 22.0 753 91 С 0 18 ЧАСОВ
27.06.18 03:00 Одесса 21.0 22.0 754 87 С 0 15 ЧАСОВ
27.06.18 12:00 Одесса 23.0 21.0 754 69 С-В 5 12 ЧАСОВ
27.06.18 09:00 Одесса 23.0 21.0 754 66 С-В 6 09 ЧАСОВ
27.06.18 06:00 Одесса 21.0 22.0 754 67 С 3 06 ЧАСОВ
27.06.18 03:00 Одесса 22.0 22.0 756 65 С 4 03 ЧАСА
26.06.18 09:00 Одесса 25.0 22.0 757 41 С-З 2 21 ЧАС
26.06.18 06:00 Одесса 25.0 22.0 757 45 С-В 3 18 ЧАСОВ
26.06.18 03:00 Одесса 26.0 22.0 758 40 В 4 15 ЧАСОВ
26.06.18 12:00 Одесса 24.0 22.0 760 41 С-В 8 12 ЧАСОВ
Количество строк
1 2 3 4 5 6 7 8 9 10
Page 7 of 382